Tiempo atmosférico en la estación meteorológica de La Almunia De Doña Godina, Zaragoza (370 m.)



Fecha
DESCASC
Temp. máxima en grados centígrados (hora)
DESCASC
Temp. mínima en grados centígrados (hora)
DESCASC
Temp. media en grados centígrados
DESCASC
Racha de viento máxima en m/sg (hora)
DESCASC
Velocidad máxima media en intervalos de 10 minutos(hora)
DESCASC
Precipitaciones diarias en mm
DESCASC
Precipitaciones de 00:00 a 06:00 en mm
DESCASC
Precipitaciones de 06:00 a 12:00 en mm
DESCASC
Precipitaciones de 12:00 a 18:00 en mm
DESCASC
Precipitaciones de 18:00 a 24:00 en mm
DESCASC
18-04-2019 19 (15:00) 10.7 (04:50) 14.8 11.94 (18:20) 6.39 (18:20) 1.4 0 0.2 0 1.2
17-04-2019 23.4 (16:40) 8.4 (07:20) 15.9 8.61 (17:20) 5.28 (16:10) 0 0 0 0 0
16-04-2019 21.7 (17:40) 9.1 (00:00) 15.4 6.67 (19:50) 4.17 (19:40) 0 0 0 0 0
15-04-2019 25.4 (15:40) 9.9 (00:00) 17.6 -- (--) -- (--) -- -- 0 0 3.8
14-04-2019 25.8 (17:50) 6.6 (00:00) 16.2 7.78 (00:30) 4.72 (18:50) 0 0 0 0 0
13-04-2019 23.2 (16:40) 2.8 (00:00) 13 7.78 (23:59) 3.89 (17:00) 0 0 0 0 0
12-04-2019 18 (16:40) 8.3 (05:50) 13.2 11.94 (10:40) 6.94 (15:50) 0 0 0 0 0
11-04-2019 15.9 (14:30) 7.4 (00:00) 11.6 13.06 (15:50) 8.61 (16:40) 0 0 0 0 0
10-04-2019 16.3 (17:10) 7.7 (00:00) 12 11.39 (18:20) 7.22 (18:20) 0 0 0 0 0
09-04-2019 17.8 (16:10) 8.6 (00:00) 13.2 11.94 (13:00) 6.11 (12:20) 0 0 0 0 0
08-04-2019 19.7 (15:30) 8.8 (00:00) 14.3 10.28 (16:50) 5.83 (16:50) 0.4 0 0 0 0.4
07-04-2019 16.3 (17:40) 6.1 (00:00) 11.2 10.28 (15:00) 5.28 (01:40) 0 0 0 0 0
06-04-2019 15.1 (15:40) 5.8 (00:00) 10.5 11.39 (16:50) 7.22 (16:50) 3.6 0 0 0.2 3.4
05-04-2019 13.3 (13:00) 5.8 (00:00) 9.6 -- (--) -- (--) 5.2 0 0 2 3.2
04-04-2019 15.9 (18:10) -0.6 (-00:0) 7.6 8.89 (22:10) 4.72 (22:10) 0 0 0 0 0
03-04-2019 12.3 (00:00) 4.6 (23:59) 8.5 10.28 (18:50) 6.39 (18:50) 0.2 0 0 0.2 0
02-04-2019 18.3 (14:40) 8.9 (00:00) 13.6 8.33 (16:00) 3.89 (16:00) 1.2 0 0.2 1 0
01-04-2019 14.3 (16:20) 7.9 (00:00) 11.1 5 (14:30) 2.78 (14:30) 8 6.6 0 1 0.4
31-03-2019 11.9 (15:20) 2.8 (00:00) 7.3 2.78 (12:00) 1.67 (13:10) 9.4 0 0 1 8.4
30-03-2019 20 (16:10) 1 (00:00) 10.5 7.78 (17:30) 3.89 (17:20) 0 0 0 0 0
29-03-2019 21 (15:10) 1.8 (00:00) 11.4 10 (14:40) 4.72 (16:40) 0 0 0 0 0
28-03-2019 19.1 (15:40) 1.7 (00:00) 10.4 6.39 (15:40) 3.61 (16:00) 0 0 0 0 0
27-03-2019 20 (15:40) 0.8 (00:00) 10.4 8.06 (18:30) 5 (18:30) 0 0 0 0 0
26-03-2019 20 (16:40) 3.6 (00:00) 11.8 -- (--) -- (--) 0 0 0 0 0
25-03-2019 18 (14:00) 5.8 (00:00) 11.9 14.17 (18:00) 8.61 (15:40) 0 0 0 0 0
24-03-2019 24.2 (15:40) 5.8 (00:00) 15 10 (22:10) 3.89 (22:10) 0 0 0 0 0
23-03-2019 22.7 (17:20) 3.6 (00:00) 13.2 7.78 (16:40) 3.89 (15:40) 0 0 0 0 0
22-03-2019 20.5 (16:40) 2.1 (00:00) 11.3 7.5 (15:50) 3.89 (16:20) 0 0 0 0 0
21-03-2019 17.1 (16:00) 0.2 (00:00) 8.7 5.83 (11:40) 3.33 (11:40) 0 0 0 0 0

Gráficas

Temp. máximas Temp. mínimas Temp. medias Precipitaciones Rachas de viento máximas Velocidades máximas media en intervalos de 10 minutos

Datos horarios

Fecha y hora oficial Temperatura (ºC) Velocidad del viento (km/h) Dirección del viento Racha (km/h) Dirección de racha Precipitación (mm) Presión (hPa) Tendencia (hPa) Humedad (%)
2019-04-19 23:00:00 14.6 4 Este 19 Sudeste 0 -- -- 59
2019-04-19 22:00:00 15 10 Este 23 Sudeste 0 -- -- 58
2019-04-19 21:00:00 15.4 8 Sudeste 16 Este 0 -- -- 58
2019-04-19 20:00:00 16.5 8 Este 24 Este 0 -- -- 56
2019-04-19 19:00:00 17.1 9 Nordeste 28 Este 0 -- -- 55
2019-04-19 18:00:00 17.8 14 Este 26 Este 0 -- -- 54
2019-04-19 17:00:00 17.5 10 Este 26 Este 0 -- -- 60
2019-04-19 16:00:00 17.1 12 Este 35 Este 0 -- -- 59
2019-04-19 15:00:00 16.8 14 Este 33 Este 0 -- -- 66
2019-04-19 14:00:00 16.3 12 Este 27 Este 0 -- -- 71
2019-04-19 13:00:00 14.9 13 Este 22 Este 0 -- -- 75
2019-04-19 12:00:00 13 10 Nordeste 18 Nordeste 0 -- -- 83
2019-04-19 11:00:00 11.5 6 Norte 15 Norte 0 -- -- 89
2019-04-19 10:00:00 11 6 Norte 14 Norte 0 -- -- 93
2019-04-19 09:00:00 10.5 0 Calma 9 Noroeste 0.4 -- -- 96
2019-04-19 08:00:00 10.5 6 Norte 10 Norte 0.6 -- -- 96
2019-04-19 07:00:00 10.5 6 Norte 11 Nordeste 1.4 -- -- 96
2019-04-19 06:00:00 10.6 7 Norte 10 Norte 3 -- -- 96
2019-04-19 05:00:00 10.8 6 Nordeste 13 Norte 2.6 -- -- 96
2019-04-19 04:00:00 10.4 8 Nordeste 14 Nordeste 2 -- -- 96
2019-04-19 03:00:00 10.3 5 Nordeste 8 Norte 1.4 -- -- 94
2019-04-19 02:00:00 10.7 3 Noroeste 5 Norte 3 -- -- 92
2019-04-19 01:00:00 10.9 3 Norte 8 Oeste 1.8 -- -- 90
2019-04-19 00:00:00 11.5 6 Oeste 20 Sur 1.2 -- -- 82
2019-04-18 23:00:00 14.2 8 Sudeste 33 Sudeste 0 -- -- 65
2019-04-18 22:00:00 15.7 17 Sudeste 39 Sudeste 0 -- -- 51
2019-04-18 21:00:00 16.2 19 Este 41 Este 0 -- -- 50
2019-04-18 20:00:00 17 18 Este 38 Este 0 -- -- 47
2019-04-18 19:00:00 17.7 15 Este 43 Este 0 -- -- 47
2019-04-18 18:00:00 18.8 22 Este 37 Este 0 -- -- 45
2019-04-18 17:00:00 17.6 11 Este 23 Este 0 -- -- 51
2019-04-18 16:00:00 17.6 16 Este 31 Este 0 -- -- 50
2019-04-18 15:00:00 19 15 Este 38 Sudeste 0 -- -- 46
2019-04-18 14:00:00 17.8 14 Este 39 Este 0 -- -- 49
2019-04-18 13:00:00 16.2 17 Este 26 Este 0 -- -- 65
2019-04-18 12:00:00 12.7 4 Nordeste 15 Nordeste 0 -- -- 84
2019-04-18 11:00:00 12.4 8 Nordeste 15 Nordeste 0.2 -- -- 88
2019-04-18 10:00:00 11.3 6 Norte 13 Noroeste 0 -- -- 89
2019-04-18 09:00:00 11.1 8 Norte 13 Norte 0 -- -- 88
2019-04-18 08:00:00 10.9 3 Nordeste 10 Nordeste 0 -- -- 87
2019-04-18 07:00:00 10.7 6 Norte 12 Norte 0 -- -- 87
2019-04-18 06:00:00 10.7 3 Norte 6 Norte 0 -- -- 86
2019-04-18 05:00:00 10.7 0 Calma 10 Noroeste 0 -- -- 85
2019-04-18 04:00:00 11.1 0 Calma 9 Este 0 -- -- 82
2019-04-18 03:00:00 12 5 Nordeste 14 Norte 0 -- -- 79
2019-04-18 02:00:00 12.4 9 Nordeste 17 Nordeste 0 -- -- 79
2019-04-18 01:00:00 13.1 8 Nordeste 21 Este 0 -- -- 77
2019-04-18 00:00:00 13.7 6 Nordeste 15 Nordeste 0 -- -- 75
2019-04-17 23:00:00 14.8 10 Este 19 Este 0 -- -- 70
2019-04-17 22:00:00 15.6 12 Este 24 Este 0 -- -- 67
2019-04-17 21:00:00 17.3 12 Este 23 Este 0 -- -- 61
2019-04-17 20:00:00 19.4 14 Este 28 Este 0 -- -- 54
2019-04-17 19:00:00 21.1 13 Este 27 Sudeste 0 -- -- 49
2019-04-17 18:00:00 22.4 14 Este 31 Este 0 -- -- 47
2019-04-17 17:00:00 22.7 15 Este 30 Este 0 -- -- 45
2019-04-17 16:00:00 21.9 17 Este 30 Este 0 -- -- 47
2019-04-17 15:00:00 20.3 13 Este 31 Este 0 -- -- 52
2019-04-17 14:00:00 19.7 14 Este 26 Este 0 -- -- 53
2019-04-17 13:00:00 17.7 10 Nordeste 20 Este 0 -- -- 58
2019-04-17 12:00:00 15.5 10 Este 19 Este 0 -- -- 66
2019-04-17 11:00:00 14.2 9 Este 17 Este 0 -- -- 70
2019-04-17 10:00:00 12.1 7 Sudeste 17 Este 0 -- -- 78
2019-04-17 09:00:00 10.3 3 Este 8 Este 0 -- -- 81
2019-04-17 08:00:00 8.5 0 Calma 7 Norte 0 -- -- 89
2019-04-17 07:00:00 8.7 4 Norte 10 Noroeste 0 -- -- 85
2019-04-17 06:00:00 9 6 Norte 9 Norte 0 -- -- 84
2019-04-17 05:00:00 9.6 5 Norte 8 Noroeste 0 -- -- 82
2019-04-17 04:00:00 10.4 4 Norte 10 Norte 0 -- -- 79
2019-04-17 03:00:00 11.3 6 Nordeste 13 Nordeste 0 -- -- 77
2019-04-17 02:00:00 12.1 5 Nordeste 16 Este 0 -- -- 74
2019-04-17 01:00:00 13.2 7 Nordeste 11 Este 0 -- -- 74
2019-04-17 00:00:00 13.3 5 Este 14 Este 0 -- -- 73
2019-04-16 23:00:00 14.1 4 Este 11 Sudeste 0 -- -- 62
2019-04-16 22:00:00 14.8 3 Este 8 Este 0 -- -- 56
2019-04-16 21:00:00 17.2 7 Este 18 Este 0 -- -- 51
2019-04-16 20:00:00 19.2 14 Nordeste 24 Nordeste 0 -- -- 46
2019-04-16 19:00:00 20.8 11 Nordeste 20 Este 0 -- -- 44
2019-04-16 18:00:00 21 12 Nordeste 22 Este 0 -- -- 41
2019-04-16 17:00:00 21.2 12 Nordeste 21 Nordeste 0 -- -- 42
2019-04-16 16:00:00 20.9 8 Este 15 Nordeste 0 -- -- 44
2019-04-16 15:00:00 20 8 Este 14 Nordeste 0 -- -- 48
2019-04-16 14:00:00 19 9 Nordeste 17 Este 0 -- -- 51
2019-04-16 13:00:00 17.2 5 Norte 14 Nordeste 0 -- -- 59
2019-04-16 12:00:00 16.6 5 Este 15 Nordeste 0 -- -- 60
2019-04-16 11:00:00 15.1 4 Este 21 Este 0 -- -- 64
2019-04-16 10:00:00 14.7 6 Nordeste 11 Nordeste 0 -- -- 66
2019-04-16 09:00:00 12.2 2 Sur 4 Sudeste 0 -- -- 77
2019-04-16 08:00:00 9.1 4 Sur 8 Sudoeste 0 -- -- 90
2019-04-16 07:00:00 10.2 5 Sudoeste 9 Sudoeste 0 -- -- 86
2019-04-16 06:00:00 11 3 Oeste 9 Oeste 0 -- -- 84
2019-04-16 05:00:00 11.3 3 Oeste 7 Oeste 0 -- -- 84
2019-04-16 04:00:00 11.5 4 Noroeste 15 Norte 0 -- -- 83
2019-04-16 03:00:00 11.8 6 Norte 21 Norte 0 -- -- 86
2019-04-16 02:00:00 12 9 Norte 21 Norte 0 -- -- 84
2019-04-16 01:00:00 12 9 Norte 15 Nordeste 0 -- -- 81
2019-04-16 00:00:00 11.6 4 Noroeste 15 Noroeste 0 -- -- 87
2019-04-15 23:00:00 12.6 5 Norte 13 Noroeste 0 -- -- 86
2019-04-15 22:00:00 13.8 5 Noroeste 14 Nordeste 2.2 -- -- 87
2019-04-15 21:00:00 15.3 4 Nordeste 25 Nordeste 1.6 -- -- 84
2019-04-15 20:00:00 18.2 17 Nordeste 27 Nordeste 0 -- -- 58
2019-04-15 19:00:00 21 15 Este 31 Sudeste 0 -- -- 53
2019-04-15 18:00:00 24.1 21 Este 36 Este 0 -- -- 44
2019-04-15 17:00:00 24.5 12 Sudeste 30 Este 0 -- -- 43
2019-04-15 16:00:00 25.1 12 Este 30 Este 0 -- -- 40
2019-04-15 15:00:00 24.3 9 Este 23 Este 0 -- -- 47
2019-04-15 14:00:00 23.5 13 Este 21 Este 0 -- -- 49
2019-04-15 13:00:00 20.8 9 Norte 15 Norte 0 -- -- 59
2019-04-15 12:00:00 18.2 7 Norte 17 Nordeste 0 -- -- 66
2019-04-15 11:00:00 16.6 5 Norte 12 Nordeste 0 -- -- 68
2019-04-15 10:00:00 15.6 5 Norte 10 Noroeste 0 -- -- 70
2019-04-15 09:00:00 12.4 5 Noroeste 8 Noroeste 0 -- -- 82
2019-04-15 08:00:00 10.5 3 Sur 13 Sudoeste 0 -- -- 88
2019-04-15 07:00:00 9.9 5 Sudoeste 9 Sudoeste 0 -- -- 89
2019-04-15 06:00:00 11.1 4 Sudoeste 11 Sudoeste 0 -- -- 84
2019-04-15 05:00:00 12.1 -- -- -- -- -- -- -- --
2019-04-15 04:00:00 12.3 4 Sudoeste 16 Oeste 0 -- -- 80
2019-04-15 03:00:00 13.3 6 Oeste 15 Sudoeste 0 -- -- 77
2019-04-15 02:00:00 11.3 2 Sudoeste 6 Sudoeste 0 -- -- 84
2019-04-15 01:00:00 12.4 4 Sudoeste 6 Sudoeste 0 -- -- 82
2019-04-15 00:00:00 13.7 3 Sur 8 Sudoeste 0 -- -- 76
2019-04-14 23:00:00 14.9 6 Sudoeste 9 Sudoeste 0 -- -- 73
2019-04-14 22:00:00 17 2 Sudeste 7 Noroeste 0 -- -- 64
2019-04-14 21:00:00 19.3 5 Norte 28 Norte 0 -- -- 56
2019-04-14 20:00:00 21.7 13 Norte 28 Norte 0 -- -- 47
2019-04-14 19:00:00 23.3 15 Norte 28 Norte 0 -- -- 41
2019-04-14 18:00:00 25.4 10 Norte 19 Noroeste 0 -- -- 36
2019-04-14 17:00:00 24.7 6 Norte 19 Norte 0 -- -- 37
2019-04-14 16:00:00 23.6 11 Nordeste 23 Nordeste 0 -- -- 37
2019-04-14 15:00:00 23.2 12 Nordeste 22 Nordeste 0 -- -- 37
2019-04-14 14:00:00 22.3 10 Norte 21 Nordeste 0 -- -- 36
2019-04-14 13:00:00 21.4 11 Norte 20 Norte 0 -- -- 38
2019-04-14 12:00:00 21 8 Sudoeste 22 Oeste 0 -- -- 40
2019-04-14 11:00:00 19.3 11 Sudoeste 23 Oeste 0 -- -- 41
2019-04-14 10:00:00 17.6 9 Oeste 27 Oeste 0 -- -- 44
2019-04-14 09:00:00 15.2 8 Oeste 21 Sudoeste 0 -- -- 44
2019-04-14 08:00:00 11.9 6 Sudoeste 15 Sudoeste 0 -- -- 45
2019-04-14 07:00:00 9.6 4 Noroeste 12 Oeste 0 -- -- 49
2019-04-14 06:00:00 8 3 Noroeste 10 Noroeste 0 -- -- 50
2019-04-14 05:00:00 6.7 2 Norte 8 Sudoeste 0 -- -- 55
2019-04-14 04:00:00 8.3 3 Sur 9 Sur 0 -- -- 46
2019-04-14 03:00:00 8.8 5 Sudoeste 10 Sudoeste 0 -- -- 40
2019-04-14 02:00:00 8.6 3 Este 9 Sudoeste 0 -- -- 42
2019-04-14 01:00:00 11.5 3 Sudoeste 28 Oeste 0 -- -- 31
2019-04-14 00:00:00 12.8 13 Oeste 28 Oeste 0 -- -- 27
2019-04-13 23:00:00 12.1 7 Sudoeste 15 Oeste 0 -- -- 32
2019-04-13 22:00:00 9.3 8 Sudoeste 10 Sudoeste 0 -- -- 52
2019-04-13 21:00:00 14.1 6 Sudoeste 8 Sudoeste 0 -- -- 43
2019-04-13 20:00:00 20.1 4 Norte 9 Nordeste 0 -- -- 18
2019-04-13 19:00:00 22.9 2 Este 15 Nordeste 0 -- -- 14
2019-04-13 18:00:00 22.2 9 Nordeste 17 Nordeste 0 -- -- 12
2019-04-13 17:00:00 22.3 14 Nordeste 25 Nordeste 0 -- -- 14
2019-04-13 16:00:00 21.6 4 Norte 19 Este 0 -- -- 22
2019-04-13 15:00:00 20.3 8 Norte 15 Nordeste 0 -- -- 22
2019-04-13 14:00:00 19.4 6 Nordeste 16 Norte 0 -- -- 23
2019-04-13 13:00:00 17.9 6 Norte 15 Norte 0 -- -- 22
2019-04-13 12:00:00 17.1 7 Sudoeste 17 Oeste 0 -- -- 21
2019-04-13 11:00:00 14.2 9 Oeste 19 Oeste 0 -- -- 31
2019-04-13 10:00:00 10.8 7 Sudoeste 14 Noroeste 0 -- -- 48
2019-04-13 09:00:00 7.1 3 Nordeste 14 Oeste 0 -- -- 69
2019-04-13 08:00:00 3.1 4 Sudoeste 8 Sudoeste 0 -- -- 79
2019-04-13 07:00:00 3.8 5 Sudoeste 11 Sudoeste 0 -- -- 77
2019-04-13 06:00:00 3.5 3 Nordeste 10 Oeste 0 -- -- 80
2019-04-13 05:00:00 3.1 2 Norte 9 Sudoeste 0 -- -- 82
2019-04-13 04:00:00 2.8 5 Sudoeste 8 Sur 0 -- -- 84
2019-04-13 03:00:00 3.9 0 Calma 9 Norte 0 -- -- 80
2019-04-13 02:00:00 4.9 6 Sudoeste 9 Sudoeste 0 -- -- 76
2019-04-13 01:00:00 6.5 5 Sur 12 Sudoeste 0 -- -- 70
2019-04-13 00:00:00 8.8 5 Sudoeste 12 Sudoeste 0 -- -- 61
2019-04-12 23:00:00 10.6 2 Sudoeste 16 Sudoeste 0 -- -- 54
2019-04-12 22:00:00 12 3 Oeste 12 Oeste 0 -- -- 49
2019-04-12 21:00:00 13.3 6 Norte 24 Norte 0 -- -- 46
2019-04-12 20:00:00 15.3 14 Norte 35 Norte 0 -- -- 41
2019-04-12 19:00:00 16.8 19 Norte 41 Norte 0 -- -- 38
2019-04-12 18:00:00 17.5 24 Norte 40 Norte 0 -- -- 36
2019-04-12 17:00:00 17.9 22 Norte 41 Norte 0 -- -- 38
2019-04-12 16:00:00 17.6 21 Norte 41 Norte 0 -- -- 37
2019-04-12 15:00:00 17.1 20 Norte 36 Norte 0 -- -- 39
2019-04-12 14:00:00 15.9 14 Norte 37 Noroeste 0 -- -- 44
2019-04-12 13:00:00 15 23 Norte 38 Noroeste 0 -- -- 45
2019-04-12 12:00:00 14 22 Norte 40 Noroeste 0 -- -- 49
2019-04-12 11:00:00 13.2 22 Norte 43 Noroeste 0 -- -- 50
2019-04-12 10:00:00 11.9 14 Noroeste 31 Noroeste 0 -- -- 56
2019-04-12 09:00:00 10.6 5 Oeste 17 Oeste 0 -- -- 60
2019-04-12 08:00:00 9 7 Sudoeste 16 Sudoeste 0 -- -- 65
2019-04-12 07:00:00 8.7 9 Sudoeste 24 Oeste 0 -- -- 66
2019-04-12 06:00:00 8.5 8 Sudoeste 19 Sudoeste 0 -- -- 67
2019-04-12 05:00:00 9.2 7 Oeste 21 Oeste 0 -- -- 64
2019-04-12 04:00:00 9.5 6 Oeste 27 Oeste 0 -- -- 63
2019-04-12 03:00:00 9.6 9 Noroeste 32 Noroeste 0 -- -- 62
2019-04-12 02:00:00 9.7 8 Noroeste 26 Oeste 0 -- -- 61
2019-04-12 01:00:00 9.8 8 Noroeste 28 Noroeste 0 -- -- 59
2019-04-12 00:00:00 9.8 9 Noroeste 26 Noroeste 0 -- -- 62
2019-04-11 23:00:00 10 12 Noroeste 31 Noroeste 0 -- -- 63
2019-04-11 22:00:00 10.7 14 Noroeste 30 Noroeste 0 -- -- 61
2019-04-11 21:00:00 11.1 11 Noroeste 36 Norte 0 -- -- 63
2019-04-11 20:00:00 12.8 18 Norte 37 Noroeste 0 -- -- 54
2019-04-11 19:00:00 14 22 Norte 40 Norte 0 -- -- 50
2019-04-11 18:00:00 15.1 27 Norte 45 Norte 0 -- -- 49
2019-04-11 17:00:00 14.8 24 Norte 45 Norte 0 -- -- 47
2019-04-11 16:00:00 15.4 25 Norte 47 Norte 0 -- -- 45
2019-04-11 15:00:00 15.1 30 Norte 45 Norte 0 -- -- 46
2019-04-11 14:00:00 14.9 24 Norte 40 Nordeste 0 -- -- 48
2019-04-11 13:00:00 14.6 23 Norte 43 Norte 0 -- -- 47
2019-04-11 12:00:00 14.1 19 Noroeste 36 Norte 0 -- -- 46
2019-04-11 11:00:00 12.2 21 Noroeste 40 Noroeste 0 -- -- 50
2019-04-11 10:00:00 12 18 Noroeste 40 Noroeste 0 -- -- 52
2019-04-11 09:00:00 10.6 8 Noroeste 26 Noroeste 0 -- -- 61
2019-04-11 08:00:00 8.7 10 Noroeste 29 Noroeste 0 -- -- 66
2019-04-11 07:00:00 7.9 9 Noroeste 18 Noroeste 0 -- -- 69
2019-04-11 06:00:00 7.5 6 Oeste 12 Noroeste 0 -- -- 71
2019-04-11 05:00:00 8.5 5 Oeste 22 Noroeste 0 -- -- 67
2019-04-11 04:00:00 9.1 8 Noroeste 28 Noroeste 0 -- -- 64
2019-04-11 03:00:00 9.6 12 Noroeste 37 Noroeste 0 -- -- 61
2019-04-11 02:00:00 9.8 16 Noroeste 28 Noroeste 0 -- -- 62
2019-04-11 01:00:00 9.9 13 Noroeste 27 Noroeste 0 -- -- 63
2019-04-11 00:00:00 10 11 Noroeste 30 Noroeste 0 -- -- 63
2019-04-10 23:00:00 10.5 9 Norte 31 Noroeste 0 -- -- 60
2019-04-10 22:00:00 11.3 19 Noroeste 33 Noroeste 0 -- -- 59
2019-04-10 21:00:00 12.4 14 Noroeste 33 Norte 0 -- -- 53
2019-04-10 20:00:00 14.1 15 Norte 31 Norte 0 -- -- 50
2019-04-10 19:00:00 15.6 18 Norte 41 Norte 0 -- -- 44
2019-04-10 18:00:00 15.9 24 Norte 39 Norte 0 -- -- 43
2019-04-10 17:00:00 16.1 18 Noroeste 32 Noroeste 0 -- -- 43
2019-04-10 16:00:00 14.8 14 Norte 35 Norte 0 -- -- 49
2019-04-10 15:00:00 15.9 21 Norte 38 Norte 0 -- -- 47
2019-04-10 14:00:00 14.6 19 Norte 34 Noroeste 0 -- -- 49
2019-04-10 13:00:00 13.1 21 Norte 33 Nordeste 0 -- -- 54
2019-04-10 12:00:00 12.7 14 Norte 23 Norte 0 -- -- 53
2019-04-10 11:00:00 12.3 4 Noroeste 19 Noroeste 0 -- -- 56
2019-04-10 10:00:00 10.9 9 Oeste 23 Sudoeste 0 -- -- 61
2019-04-10 09:00:00 8.8 6 Noroeste 19 Oeste 0 -- -- 69
2019-04-10 08:00:00 8.3 6 Oeste 17 Sudoeste 0 -- -- 69
2019-04-10 07:00:00 7.7 7 Oeste 15 Oeste 0 -- -- 72
2019-04-10 06:00:00 7.8 8 Sudoeste 16 Sudoeste 0 -- -- 73
2019-04-10 05:00:00 8 5 Oeste 13 Noroeste 0 -- -- 71
2019-04-10 04:00:00 8.9 5 Oeste 19 Oeste 0 -- -- 68
2019-04-10 03:00:00 8.6 4 Oeste 13 Oeste 0 -- -- 70
2019-04-10 02:00:00 8.8 5 Oeste 12 Oeste 0 -- -- 70
2019-04-10 01:00:00 9 0 Calma 5 Nordeste 0 -- -- 74
2019-04-10 00:00:00 10.6 5 Oeste 13 Oeste 0 -- -- 67
2019-04-09 23:00:00 10.7 4 Oeste 16 Oeste 0 -- -- 67
2019-04-09 22:00:00 10.4 10 Sudoeste 27 Sudoeste 0 -- -- 68
2019-04-09 21:00:00 10.4 14 Sudoeste 33 Sudoeste 0 -- -- 69
2019-04-09 20:00:00 10.6 17 Sudoeste 41 Sudoeste 0 -- -- 67
2019-04-09 19:00:00 11.2 20 Sudoeste 42 Sudoeste 0 -- -- 64
2019-04-09 18:00:00 13.6 13 Sudoeste 36 Oeste 0 -- -- 56
2019-04-09 17:00:00 15.5 14 Oeste 36 Oeste 0 -- -- 45
2019-04-09 16:00:00 17.3 13 Oeste 31 Oeste 0 -- -- 42
2019-04-09 15:00:00 17 17 Oeste 35 Sudoeste 0 -- -- 44
2019-04-09 14:00:00 15.5 15 Sudoeste 33 Sudoeste 0 -- -- 47
2019-04-09 13:00:00 15.6 21 Sudoeste 43 Sudoeste 0 -- -- 48
2019-04-09 12:00:00 15 15 Sudoeste 35 Sudoeste 0 -- -- 49
2019-04-09 11:00:00 13.4 13 Sudoeste 29 Sudoeste 0 -- -- 59
2019-04-09 10:00:00 11.3 15 Sudoeste 28 Sudoeste 0 -- -- 64
2019-04-09 09:00:00 10 14 Sudoeste 32 Sudoeste 0 -- -- 67
2019-04-09 08:00:00 8.6 10 Sudoeste 25 Sudoeste 0 -- -- 72
2019-04-09 07:00:00 9 12 Oeste 26 Sudoeste 0 -- -- 70
2019-04-09 06:00:00 9 14 Sudoeste 29 Sudoeste 0 -- -- 73
2019-04-09 05:00:00 9.5 13 Sudoeste 36 Sudoeste 0 -- -- 71
2019-04-09 04:00:00 9.5 16 Sudoeste 36 Sudoeste 0 -- -- 72
2019-04-09 03:00:00 9.9 14 Sudoeste 30 Sudoeste 0 -- -- 70
2019-04-09 02:00:00 11.3 13 Sudoeste 34 Oeste 0 -- -- 61
2019-04-09 01:00:00 11 6 Noroeste 21 Oeste 0 -- -- 66
2019-04-09 00:00:00 11.6 10 Oeste 25 Oeste 0 -- -- 65
2019-04-08 23:00:00 9 6 Sudoeste 9 Sudoeste 0 -- -- 90
2019-04-08 22:00:00 10 4 Sudoeste 7 Oeste 0 -- -- 82
2019-04-08 21:00:00 12.5 5 Nordeste 15 Norte 0 -- -- 75
2019-04-08 20:00:00 13.9 9 Norte 21 Sudoeste 0 -- -- 63
2019-04-08 19:00:00 13.6 18 Sudoeste 31 Sudoeste 0.4 -- -- 63
2019-04-08 18:00:00 16.5 11 Oeste 28 Sudoeste 0 -- -- 58
2019-04-08 17:00:00 13.7 21 Sudoeste 37 Sudoeste 0 -- -- 69
2019-04-08 16:00:00 18 15 Oeste 33 Oeste 0 -- -- 45
2019-04-08 15:00:00 19.1 12 Sudoeste 27 Sudoeste 0 -- -- 46
2019-04-08 14:00:00 18.7 15 Sudoeste 33 Sudoeste 0 -- -- 54
2019-04-08 13:00:00 17.3 13 Sudoeste 30 Sudoeste 0 -- -- 57
2019-04-08 12:00:00 13.8 11 Oeste 22 Oeste 0 -- -- 65
2019-04-08 11:00:00 12.5 5 Oeste 21 Sudoeste 0 -- -- 69
2019-04-08 10:00:00 11.9 9 Sudoeste 21 Sudoeste 0 -- -- 71
2019-04-08 09:00:00 11 8 Sudoeste 20 Sudoeste 0 -- -- 72
2019-04-08 08:00:00 10.6 5 Sudoeste 20 Oeste 0 -- -- 73
2019-04-08 07:00:00 10.5 9 Oeste 22 Oeste 0 -- -- 71
2019-04-08 06:00:00 10.3 8 Sudoeste 24 Oeste 0 -- -- 71
2019-04-08 05:00:00 8.9 0 Calma 5 Sur 0 -- -- 82
2019-04-08 04:00:00 9.4 4 Oeste 13 Noroeste 0 -- -- 75
2019-04-08 03:00:00 9.6 8 Oeste 21 Sudoeste 0 -- -- 74
2019-04-08 02:00:00 10 10 Sudoeste 26 Sudoeste 0 -- -- 71
2019-04-08 01:00:00 11.2 12 Sudoeste 33 Sudoeste 0 -- -- 60
2019-04-08 00:00:00 11.8 13 Sudoeste 31 Oeste 0 -- -- 56
2019-04-07 23:00:00 8.9 5 Sur 10 Sur 0 -- -- 73
2019-04-07 22:00:00 9.7 5 Sudoeste 7 Sudoeste 0 -- -- 68
2019-04-07 21:00:00 11.8 4 Sudoeste 15 Oeste 0 -- -- 53
2019-04-07 20:00:00 13.3 6 Oeste 22 Oeste 0 -- -- 43
2019-04-07 19:00:00 14.5 7 Oeste 32 Oeste 0 -- -- 41
2019-04-07 18:00:00 16 12 Oeste 25 Oeste 0 -- -- 39
2019-04-07 17:00:00 14.7 10 Sudoeste 24 Sudoeste 0 -- -- 44
2019-04-07 16:00:00 14.1 4 Norte 19 Norte 0 -- -- 46
2019-04-07 15:00:00 13.6 12 Noroeste 37 Noroeste 0 -- -- 51
2019-04-07 14:00:00 13.2 7 Noroeste 25 Noroeste 0 -- -- 49
2019-04-07 13:00:00 12.3 8 Noroeste 20 Noroeste 0 -- -- 49
2019-04-07 12:00:00 11.1 12 Oeste 25 Oeste 0 -- -- 53
2019-04-07 11:00:00 11.2 12 Oeste 32 Sudoeste 0 -- -- 54
2019-04-07 10:00:00 10.4 11 Oeste 28 Oeste 0 -- -- 53
2019-04-07 09:00:00 8.3 9 Oeste 24 Oeste 0 -- -- 61
2019-04-07 08:00:00 6.6 2 Oeste 19 Oeste 0 -- -- 69
2019-04-07 07:00:00 7.2 5 Oeste 14 Oeste 0 -- -- 68
2019-04-07 06:00:00 7.7 8 Oeste 24 Oeste 0 -- -- 67
2019-04-07 05:00:00 8.1 12 Oeste 32 Oeste 0 -- -- 65
2019-04-07 04:00:00 7.7 10 Oeste 30 Oeste 0 -- -- 69
2019-04-07 03:00:00 7.3 15 Oeste 33 Oeste 0 -- -- 74
2019-04-07 02:00:00 6.9 15 Sudoeste 31 Sudoeste 0 -- -- 78
2019-04-07 01:00:00 6.9 11 Sudoeste 27 Sudoeste 0 -- -- 80
2019-04-07 00:00:00 6.6 15 Sudoeste 37 Sudoeste 0.4 -- -- 83
2019-04-06 23:00:00 6.6 5 Oeste 22 Sudoeste 0 -- -- 82
2019-04-06 22:00:00 6.8 16 Sudoeste 28 Sudoeste 0.6 -- -- 85
2019-04-06 21:00:00 6.6 12 Sudoeste 22 Noroeste 1.2 -- -- 89
2019-04-06 20:00:00 8 9 Noroeste 27 Sur 0.4 -- -- 80
2019-04-06 19:00:00 8.1 14 Sudoeste 26 Sudoeste 0.8 -- -- 81
2019-04-06 18:00:00 9 5 Sudoeste 29 Sur 0.2 -- -- 77
2019-04-06 17:00:00 12.1 21 Sudoeste 41 Sur 0 -- -- 54
2019-04-06 16:00:00 14.9 12 Sudoeste 29 Sudoeste 0 -- -- 42
2019-04-06 15:00:00 13.8 15 Sudoeste 34 Sudoeste 0 -- -- 46
2019-04-06 14:00:00 12.7 17 Sudoeste 35 Oeste 0 -- -- 49
2019-04-06 13:00:00 11.2 16 Sudoeste 36 Sudoeste 0 -- -- 51
2019-04-06 12:00:00 10.7 19 Oeste 40 Oeste 0 -- -- 53
2019-04-06 11:00:00 10.5 15 Sudoeste 40 Sudoeste 0 -- -- 56
2019-04-06 10:00:00 9.4 17 Sudoeste 39 Oeste 0 -- -- 58
2019-04-06 09:00:00 7.8 13 Sudoeste 28 Oeste 0 -- -- 66
2019-04-06 08:00:00 6.3 10 Sudoeste 30 Sudoeste 0 -- -- 71
2019-04-06 07:00:00 6.2 15 Sudoeste 31 Oeste 0 -- -- 72
2019-04-06 06:00:00 6.2 14 Sudoeste 37 Oeste 0 -- -- 73
2019-04-06 05:00:00 6.8 13 Sudoeste 35 Oeste 0 -- -- 70
2019-04-06 04:00:00 7 14 Sudoeste 33 Oeste 0 -- -- 70
2019-04-06 03:00:00 7.1 15 Oeste 35 Sudoeste 0 -- -- 70
2019-04-06 02:00:00 6.8 13 Sudoeste 31 Oeste 0 -- -- 73
2019-04-06 01:00:00 6.2 11 Oeste 31 Sudoeste 0 -- -- 80
2019-04-06 00:00:00 5.8 10 Sudoeste 28 Sudoeste 0 -- -- 83
2019-04-05 23:00:00 5.9 9 Sudoeste 26 Sudoeste 0.6 -- -- 85
2019-04-05 22:00:00 6.8 10 Sudoeste 20 Oeste 1.4 -- -- 87
2019-04-05 21:00:00 8.8 2 Noroeste 22 Este 1.2 -- -- 88
2019-04-05 20:00:00 9.8 9 Este 16 Este 0 -- -- 84
2019-04-05 19:00:00 10.6 7 Este 14 Sudeste 0 -- -- 78
2019-04-05 18:00:00 11 9 Este 18 Este 0 -- -- 76
2019-04-05 17:00:00 9.2 6 Sudeste 10 Sudeste 1 -- -- 83
2019-04-05 16:00:00 10.4 3 Sudoeste 12 Noroeste 0.2 -- -- 74
2019-04-05 15:00:00 10 4 Noroeste 23 Oeste 0.8 -- -- 80
2019-04-05 14:00:00 12.7 9 Oeste 22 Sudoeste 0 -- -- 55
2019-04-05 13:00:00 13.3 8 Oeste -- -- -- -- -- 51
2019-04-05 12:00:00 -- -- -- -- -- -- -- -- --
2019-04-05 11:00:00 11.8 4 Sur 12 Sudoeste 0 -- -- 56
2019-04-05 10:00:00 10.3 4 Sudoeste 18 Sur 0 -- -- 61
2019-04-05 09:00:00 10 6 Sudoeste 24 Oeste 0 -- -- 60
2019-04-05 08:00:00 8.7 9 Sudoeste 20 Sudoeste 0 -- -- 62
2019-04-05 07:00:00 7.8 5 Norte 23 Sudoeste 0 -- -- 70
2019-04-05 06:00:00 7 3 Sudoeste 9 Sudoeste 0 -- -- 71
2019-04-05 05:00:00 7.4 0 Calma 11 Noroeste 0 -- -- 65
2019-04-05 04:00:00 7.9 7 Norte 15 Noroeste 0 -- -- 64
2019-04-05 03:00:00 8 7 Norte 11 Noroeste 0 -- -- 63
2019-04-05 02:00:00 9 5 Este 22 Este 0 -- -- 55
2019-04-05 01:00:00 9.7 12 Sudeste 27 Sudeste 0 -- -- 50
2019-04-05 00:00:00 10.8 15 Sudeste 29 Sudeste 0 -- -- 44
2019-04-04 23:00:00 11.1 16 Sudeste 32 Sudeste 0 -- -- 43
2019-04-04 22:00:00 11.6 12 Sudeste 26 Sudeste 0 -- -- 45
2019-04-04 21:00:00 12.5 6 Sudeste 15 Sudeste 0 -- -- 45
2019-04-04 20:00:00 13.9 6 Sudeste 12 Sudeste 0 -- -- 38
2019-04-04 19:00:00 15.6 2 Nordeste 13 Oeste 0 -- -- 31
2019-04-04 18:00:00 15.7 3 Oeste 21 Sudoeste 0 -- -- 31
2019-04-04 17:00:00 15.8 14 Sudoeste 27 Sur 0 -- -- 26
2019-04-04 16:00:00 15 12 Sudoeste 32 Sudoeste 0 -- -- 30
2019-04-04 15:00:00 14.2 8 Sudoeste 26 Sudoeste 0 -- -- 38
2019-04-04 14:00:00 12.8 8 Noroeste 22 Sudoeste 0 -- -- 37
2019-04-04 13:00:00 11.4 5 Oeste 23 Oeste 0 -- -- 42
2019-04-04 12:00:00 9.7 12 Sudoeste 25 Oeste 0 -- -- 48
2019-04-04 11:00:00 8.1 11 Sudoeste 26 Oeste 0 -- -- 53
2019-04-04 10:00:00 6.2 11 Oeste 27 Oeste 0 -- -- 61
2019-04-04 09:00:00 3.8 10 Sudoeste 21 Oeste 0 -- -- 72
2019-04-04 08:00:00 1.2 4 Oeste 10 Noroeste 0 -- -- 84
2019-04-04 07:00:00 0.6 6 Oeste 13 Sudoeste 0 -- -- 92
2019-04-04 06:00:00 -0.1 3 Noroeste 7 Oeste 0 -- -- 91
2019-04-04 05:00:00 0.6 0 Calma 11 Oeste 0 -- -- 89
2019-04-04 04:00:00 0.4 2 Oeste 5 Nordeste 0 -- -- 95
2019-04-04 03:00:00 0.8 2 Sudeste 8 Sudoeste 0 -- -- 93
2019-04-04 02:00:00 1.5 4 Sur 6 Sudoeste 0 -- -- 92
2019-04-04 01:00:00 3.1 6 Sudoeste 9 Sudoeste 0 -- -- 90
2019-04-04 00:00:00 4.6 0 Calma 10 Noroeste 0 -- -- 82
2019-04-03 23:00:00 5.7 4 Oeste 10 Oeste 0 -- -- 80
2019-04-03 22:00:00 5.7 3 Sur 10 Sudoeste 0 -- -- 86
2019-04-03 21:00:00 5.5 3 Sur 12 Sudeste 0 -- -- 85
2019-04-03 20:00:00 5.5 6 Este 27 Norte 0 -- -- 84
2019-04-03 19:00:00 6.1 18 Norte 37 Norte 0 -- -- 81
2019-04-03 18:00:00 8.9 3 Sudeste 9 Nordeste 0 -- -- 76
2019-04-03 17:00:00 8.5 5 Nordeste 12 Este 0 -- -- 77
2019-04-03 16:00:00 7.6 3 Norte 31 Norte 0.2 -- -- 83
2019-04-03 15:00:00 7.6 10 Norte 19 Norte 0 -- -- 83
2019-04-03 14:00:00 7.7 11 Nordeste 24 Norte 0 -- -- 79
2019-04-03 13:00:00 8.3 15 Norte 26 Norte 0 -- -- 76
2019-04-03 12:00:00 9.5 9 Norte 18 Norte 0 -- -- 77
2019-04-03 11:00:00 10 7 Nordeste 13 Nordeste 0 -- -- 77
2019-04-03 10:00:00 9.9 4 Nordeste 9 Este 0 -- -- 85
2019-04-03 09:00:00 7.5 0 Calma 8 Sudoeste 0 -- -- 95
2019-04-03 08:00:00 6.7 0 Calma 7 Sudeste 0 -- -- 93
2019-04-03 07:00:00 6.9 3 Oeste 6 Sudoeste 0 -- -- 94
2019-04-03 06:00:00 6.9 0 Calma 5 Sudoeste 0 -- -- 94
2019-04-03 05:00:00 7.3 4 Sudoeste 8 Oeste 0 -- -- 92
2019-04-03 04:00:00 7.9 4 Sudoeste 7 Sur 0 -- -- 90
2019-04-03 03:00:00 9.2 5 Sur 9 Sur 0 -- -- 88
2019-04-03 02:00:00 11.3 4 Sur 12 Este 0 -- -- 80
2019-04-03 01:00:00 11.8 3 Noroeste 13 Oeste 0 -- -- 77
2019-04-03 00:00:00 12.3 4 Norte 16 Norte 0 -- -- 77
2019-04-02 23:00:00 12.8 8 Oeste 18 Sudoeste 0 -- -- 72
2019-04-02 22:00:00 13 8 Oeste 21 Oeste 0 -- -- 75
2019-04-02 21:00:00 13 6 Sur 8 Sur 0 -- -- 82
2019-04-02 20:00:00 15.2 4 Sudoeste 12 Sudoeste 0 -- -- 67
2019-04-02 19:00:00 16.8 5 Sudoeste 20 Oeste 0 -- -- 64
2019-04-02 18:00:00 14.1 9 Oeste 19 Oeste 0 -- -- 76
2019-04-02 17:00:00 13.2 6 Sudoeste 23 Sudoeste 0.6 -- -- 78
2019-04-02 16:00:00 13.7 14 Noroeste 30 Norte 0.4 -- -- 62
2019-04-02 15:00:00 17.9 6 Norte 16 Norte 0 -- -- 61
2019-04-02 14:00:00 17.4 4 Sudeste 12 Nordeste 0 -- -- 60
2019-04-02 13:00:00 14.8 5 Sudeste 9 Sudeste 0 -- -- 75
2019-04-02 12:00:00 12.8 2 Este 9 Sudeste 0 -- -- 85
2019-04-02 11:00:00 11.2 4 Sudeste 6 Sudeste 0 -- -- 94
2019-04-02 10:00:00 10.2 4 Sudoeste 9 Sudoeste 0 -- -- 98
2019-04-02 09:00:00 9.3 4 Sudoeste 8 Sudoeste 0.2 -- -- 98
2019-04-02 08:00:00 9 2 Oeste 5 Norte 0 -- -- 97
2019-04-02 07:00:00 9.2 0 Calma 4 Norte 0 -- -- 97
2019-04-02 06:00:00 9.4 0 Calma 5 Nordeste 0 -- -- 96
2019-04-02 05:00:00 9.2 3 Nordeste 6 Noroeste 0 -- -- 95
2019-04-02 04:00:00 10 2 Norte 7 Sudoeste 0 -- -- 93
2019-04-02 03:00:00 10.8 0 Calma 9 Oeste 0 -- -- 93
2019-04-02 02:00:00 11 0 Calma 6 Oeste 0 -- -- 96
2019-04-02 01:00:00 11 3 Sudoeste 5 Oeste 0 -- -- 96
2019-04-02 00:00:00 10.6 3 Oeste 6 Oeste 0 -- -- 94
2019-04-01 23:00:00 11.8 0 Calma 4 Sudoeste 0 -- -- 93
2019-04-01 22:00:00 12.3 0 Calma 7 Noroeste 0.2 -- -- 92
2019-04-01 21:00:00 12.5 0 Calma 3 Noroeste 0 -- -- 91
2019-04-01 20:00:00 13 0 Calma 4 Sur 0.2 -- -- 89
2019-04-01 19:00:00 13.7 3 Oeste 12 Norte 0 -- -- 84
2019-04-01 18:00:00 13.7 7 Norte 13 Noroeste 0.8 -- -- 84
2019-04-01 17:00:00 13.9 7 Norte 15 Nordeste 0 -- -- 78
2019-04-01 16:00:00 14 8 Norte 17 Norte 0 -- -- 74
2019-04-01 15:00:00 14.2 8 Norte 18 Norte 0.2 -- -- 76
2019-04-01 14:00:00 13.7 4 Nordeste 10 Nordeste 0 -- -- 73
2019-04-01 13:00:00 13.5 4 Este 10 Este 0 -- -- 73
2019-04-01 12:00:00 11.9 3 Este 8 Nordeste 0 -- -- 77
2019-04-01 11:00:00 10.4 0 Calma 5 Este 0 -- -- 82
2019-04-01 10:00:00 8.8 0 Calma 4 Oeste 0 -- -- 88
2019-04-01 09:00:00 8.1 0 Calma 3 Sudoeste 0 -- -- 95
2019-04-01 08:00:00 7.9 3 Oeste 4 Oeste 0 -- -- 96
2019-04-01 07:00:00 8 2 Norte 3 Norte 0 -- -- 95
2019-04-01 06:00:00 8 0 Calma 4 Este 0.2 -- -- 95
2019-04-01 05:00:00 8 3 Este 4 Este 0.6 -- -- 95
2019-04-01 04:00:00 8 3 Nordeste 4 Nordeste 1.2 -- -- 94
2019-04-01 03:00:00 8.2 2 Este 4 Nordeste 1.6 -- -- 94
2019-04-01 02:00:00 8.3 0 Calma 3 Nordeste 1.8 -- -- 94
2019-04-01 01:00:00 8.5 0 Calma 3 Este 1.2 -- -- 94
2019-04-01 00:00:00 8.6 0 Calma 3 Este 0.6 -- -- 94
2019-03-31 23:00:00 8.6 0 Calma 6 Sur 1 -- -- 93
2019-03-31 22:00:00 8.5 4 Sur 7 Oeste 1.4 -- -- 93
2019-03-31 21:00:00 8.5 2 Noroeste 6 Sudoeste 2.2 -- -- 92
2019-03-31 20:00:00 8.7 2 Oeste 6 Sudoeste 2.4 -- -- 89
2019-03-31 19:00:00 9.5 3 Sudoeste 6 Oeste 0.8 -- -- 83
2019-03-31 18:00:00 10.9 0 Calma 4 Sudoeste 0.6 -- -- 72
2019-03-31 17:00:00 11.3 0 Calma 8 Noroeste 0.2 -- -- 73
2019-03-31 16:00:00 11.5 3 Sudoeste 5 Sudoeste 0.2 -- -- 72
2019-03-31 15:00:00 11.6 2 Este 10 Este 0 -- -- 67
2019-03-31 14:00:00 11.4 5 Este 10 Nordeste 0 -- -- 66
2019-03-31 13:00:00 10.9 5 Nordeste 10 Nordeste 0 -- -- 69
2019-03-31 12:00:00 10.1 5 Nordeste 10 Nordeste 0 -- -- 73
2019-03-31 11:00:00 9.1 4 Nordeste 8 Este 0 -- -- 72
2019-03-31 10:00:00 7.8 5 Nordeste 8 Nordeste 0 -- -- 73
2019-03-31 09:00:00 4.3 0 Calma 5 Sudoeste 0 -- -- 85
2019-03-31 08:00:00 2.8 0 Calma 4 Sudoeste 0 -- -- 86
2019-03-31 07:00:00 3.3 0 Calma 6 Sudoeste 0 -- -- 87
2019-03-31 06:00:00 3.2 4 Sudoeste 6 Sudoeste 0 -- -- 86
2019-03-31 05:00:00 3.3 4 Sudoeste 7 Sudoeste 0 -- -- 82
2019-03-31 03:00:00 5 2 Oeste 7 Sudoeste 0 -- -- 71
2019-03-31 01:00:00 6.6 0 Calma 8 Norte 0 -- -- 66
2019-03-31 00:00:00 7.5 0 Calma 9 Norte 0 -- -- 62
2019-03-30 23:00:00 8.6 6 Norte 10 Norte 0 -- -- 56
2019-03-30 22:00:00 9.9 6 Norte 9 Norte 0 -- -- 50
2019-03-30 21:00:00 11.3 4 Nordeste 7 Este 0 -- -- 44
2019-03-30 20:00:00 14 4 Este 14 Este 0 -- -- 38
2019-03-30 19:00:00 17.2 9 Este 21 Este 0 -- -- 31
2019-03-30 18:00:00 19.6 7 Este 28 Nordeste 0 -- -- 25
2019-03-30 17:00:00 19.7 9 Este 21 Este 0 -- -- 26
2019-03-30 16:00:00 19.6 11 Nordeste 20 Este 0 -- -- 27
2019-03-30 15:00:00 19.1 10 Nordeste 22 Este 0 -- -- 28
2019-03-30 14:00:00 18.5 10 Nordeste 21 Este 0 -- -- 31
2019-03-30 13:00:00 17.8 10 Nordeste 18 Este 0 -- -- 34
2019-03-30 12:00:00 16 8 Este 18 Este 0 -- -- 38
2019-03-30 11:00:00 13.3 3 Este 10 Nordeste 0 -- -- 46
2019-03-30 10:00:00 10.2 5 Norte 9 Nordeste 0 -- -- 56
2019-03-30 09:00:00 8 3 Nordeste 6 Nordeste 0 -- -- 62
2019-03-30 08:00:00 3.6 0 Calma 4 Sudoeste 0 -- -- 80
2019-03-30 07:00:00 1 4 Sudoeste 6 Sudoeste 0 -- -- 83
2019-03-30 06:00:00 2.6 2 Noroeste 6 Noroeste 0 -- -- 78
2019-03-30 05:00:00 3.8 3 Noroeste 8 Sur 0 -- -- 76
2019-03-30 04:00:00 4.7 5 Sudoeste 14 Norte 0 -- -- 72
2019-03-30 03:00:00 6.9 13 Norte 18 Norte 0 -- -- 65
2019-03-30 02:00:00 7 8 Noroeste 13 Noroeste 0 -- -- 65
2019-03-30 01:00:00 7.4 4 Noroeste 13 Norte 0 -- -- 64
2019-03-30 00:00:00 8.6 3 Norte 9 Sudoeste 0 -- -- 60
2019-03-29 23:00:00 9.7 6 Este 10 Sudeste 0 -- -- 55
2019-03-29 22:00:00 11.9 5 Este 20 Sudeste 0 -- -- 49
2019-03-29 21:00:00 13.2 9 Este 19 Este 0 -- -- 48
2019-03-29 20:00:00 14.6 10 Este 27 Este 0 -- -- 46
2019-03-29 19:00:00 17.1 11 Este 30 Este 0 -- -- 41
2019-03-29 18:00:00 19.7 13 Este 32 Este 0 -- -- 33
2019-03-29 17:00:00 20.8 14 Sudeste 30 Este 0 -- -- 28
2019-03-29 16:00:00 20.9 12 Este 26 Este 0 -- -- 28
2019-03-29 15:00:00 20.6 14 Este 36 Este 0 -- -- 28
2019-03-29 14:00:00 19.7 10 Este 29 Este 0 -- -- 30
2019-03-29 13:00:00 18.2 10 Nordeste 20 Nordeste 0 -- -- 35
2019-03-29 12:00:00 15.7 9 Nordeste 15 Nordeste 0 -- -- 40
2019-03-29 11:00:00 14 6 Este 12 Este 0 -- -- 43
2019-03-29 10:00:00 11.9 3 Este 9 Este 0 -- -- 49
2019-03-29 09:00:00 8.8 4 Este 8 Este 0 -- -- 61
2019-03-29 08:00:00 4.2 0 Calma 4 Sur 0 -- -- 79
2019-03-29 07:00:00 1.8 2 Sur 6 Sudoeste 0 -- -- 84
2019-03-29 06:00:00 2.1 0 Calma 6 Oeste 0 -- -- 82
2019-03-29 05:00:00 2.5 3 Sudoeste 6 Sudoeste 0 -- -- 80
2019-03-29 04:00:00 2.4 5 Sudoeste 9 Sudoeste 0 -- -- 80
2019-03-29 03:00:00 3.9 0 Calma 5 Nordeste 0 -- -- 75
2019-03-29 02:00:00 5 0 Calma 8 Sudoeste 0 -- -- 72
2019-03-29 01:00:00 5.4 5 Sudoeste 9 Sudoeste 0 -- -- 68
2019-03-29 00:00:00 6.4 5 Sudoeste 9 Sudoeste 0 -- -- 64
2019-03-28 23:00:00 8.3 2 Sur 15 Norte 0 -- -- 58
2019-03-28 22:00:00 8.3 0 Calma 5 Sudoeste 0 -- -- 58
2019-03-28 21:00:00 9.3 5 Sur 6 Sudoeste 0 -- -- 57
2019-03-28 20:00:00 12.8 6 Sudoeste 8 Sudoeste 0 -- -- 46
2019-03-28 19:00:00 16.5 5 Nordeste 16 Nordeste 0 -- -- 36
2019-03-28 18:00:00 18.4 8 Nordeste 22 Nordeste 0 -- -- 33
2019-03-28 17:00:00 18.6 11 Nordeste 22 Norte 0 -- -- 34
2019-03-28 16:00:00 18.7 13 Nordeste 23 Nordeste 0 -- -- 33
2019-03-28 15:00:00 18.4 11 Nordeste 22 Nordeste 0 -- -- 35
2019-03-28 14:00:00 17.8 11 Este 20 Nordeste 0 -- -- 37
2019-03-28 13:00:00 16.8 4 Norte 14 Sudeste 0 -- -- 40
2019-03-28 12:00:00 14.9 5 Este 18 Norte 0 -- -- 44
2019-03-28 11:00:00 13.4 8 Norte 15 Norte 0 -- -- 44
2019-03-28 10:00:00 12.5 5 Nordeste 11 Oeste 0 -- -- 43
2019-03-28 09:00:00 9.4 6 Sudoeste 16 Oeste 0 -- -- 48
2019-03-28 08:00:00 5.4 7 Oeste 15 Oeste 0 -- -- 55
2019-03-28 07:00:00 1.7 0 Calma 10 Sudoeste 0 -- -- 72
2019-03-28 06:00:00 2.1 0 Calma 8 Sudoeste 0 -- -- 69
2019-03-28 05:00:00 2.7 2 Sur 9 Sudoeste 0 -- -- 66
2019-03-28 04:00:00 3.8 0 Calma 8 Sudoeste 0 -- -- 63
2019-03-28 03:00:00 5.9 6 Sur 15 Sudeste 0 -- -- 55
2019-03-28 02:00:00 7.8 7 Sur 15 Sudeste 0 -- -- 47
2019-03-28 01:00:00 6.3 7 Sudoeste 12 Sudoeste 0 -- -- 47
2019-03-28 00:00:00 7.2 7 Sudoeste 11 Sudoeste 0 -- -- 43
2019-03-27 23:00:00 8.7 9 Sudoeste 13 Norte 0 -- -- 39
2019-03-27 22:00:00 11.6 7 Norte 28 Noroeste 0 -- -- 32
2019-03-27 21:00:00 13.2 4 Norte 28 Norte 0 -- -- 31
2019-03-27 20:00:00 14.8 13 Norte 24 Norte 0 -- -- 27
2019-03-27 19:00:00 16.9 12 Norte 29 Norte 0 -- -- 23
2019-03-27 18:00:00 19.2 13 Norte 26 Nordeste 0 -- -- 20
2019-03-27 17:00:00 19.8 15 Norte 27 Nordeste 0 -- -- 19
2019-03-27 16:00:00 19.7 12 Norte 26 Norte 0 -- -- 20
2019-03-27 15:00:00 19.2 13 Nordeste 28 Norte 0 -- -- 22
2019-03-27 14:00:00 18.1 16 Norte 27 Norte 0 -- -- 22
2019-03-27 13:00:00 17.5 6 Sudeste 13 Sudeste 0 -- -- 27
2019-03-27 12:00:00 14.7 4 Nordeste 14 Norte 0 -- -- 31
2019-03-27 11:00:00 13.6 7 Nordeste 12 Este 0 -- -- 32
2019-03-27 10:00:00 11.4 5 Sudeste 9 Sudeste 0 -- -- 38
2019-03-27 09:00:00 8.7 5 Este 8 Este 0 -- -- 46
2019-03-27 08:00:00 4 3 Oeste 9 Oeste 0 -- -- 59
2019-03-27 07:00:00 0.9 0 Calma 6 Sur 0 -- -- 67
2019-03-27 06:00:00 1.9 0 Calma 12 Sudoeste 0 -- -- 63
2019-03-27 05:00:00 3.2 5 Sudoeste 12 Sudoeste 0 -- -- 56
2019-03-27 04:00:00 2.3 4 Sudoeste 9 Noroeste 0 -- -- 61
2019-03-27 03:00:00 3.5 5 Sur 10 Sudoeste 0 -- -- 57
2019-03-27 02:00:00 3.1 5 Sudoeste 12 Sudoeste 0 -- -- 58
2019-03-27 01:00:00 4.7 3 Norte 7 Sudoeste 0 -- -- 52
2019-03-27 00:00:00 5.9 6 Sudoeste 10 Sur 0 -- -- 47
2019-03-26 23:00:00 8.5 6 Sur 14 Sur 0 -- -- 39
2019-03-26 22:00:00 9.6 4 Este 14 Sudeste 0 -- -- 38
2019-03-26 21:00:00 12.4 9 Noroeste 23 Noroeste 0 -- -- 30
2019-03-26 20:00:00 12.8 4 Nordeste 25 Norte 0 -- -- 30
2019-03-26 19:00:00 15.9 16 Norte 32 Norte 0 -- -- 21
2019-03-26 18:00:00 18.4 18 Norte 29 Norte 0 -- -- 19
2019-03-26 17:00:00 19.7 16 Norte 30 Norte 0 -- -- 16
2019-03-26 16:00:00 19.7 10 Norte 23 Norte 0 -- -- 17
2019-03-26 15:00:00 19.2 9 Nordeste 27 Nordeste 0 -- -- 20
2019-03-26 14:00:00 18.1 13 Nordeste 26 Nordeste 0 -- -- 24
2019-03-26 13:00:00 16.8 13 Nordeste 28 Norte 0 -- -- 27
2019-03-26 12:00:00 15.9 6 Norte 18 Oeste 0 -- -- 32
2019-03-26 11:00:00 13.6 9 Sur 18 Sudoeste 0 -- -- 39
2019-03-26 10:00:00 12 6 Sudoeste 12 Sudoeste 0 -- -- 42
2019-03-26 09:00:00 10.2 7 Sur 14 Sudeste 0 -- -- 50
2019-03-26 08:00:00 5.8 3 Sur 6 Sudoeste 0 -- -- 68
2019-03-26 07:00:00 3.7 3 Este 8 Noroeste 0 -- -- 75
2019-03-26 06:00:00 4.1 3 Sudoeste 7 Sudoeste 0 -- -- 73
2019-03-26 05:00:00 5.1 3 Sur 9 Sudoeste 0 -- -- 70
2019-03-26 04:00:00 6.2 6 Sudoeste 12 Este 0 -- -- 66
2019-03-26 03:00:00 7.6 -- -- -- -- -- -- -- --
2019-03-26 02:00:00 9 12 Noroeste 32 Noroeste 0 -- -- 59
2019-03-26 01:00:00 8.9 8 Noroeste 24 Noroeste 0 -- -- 59
2019-03-26 00:00:00 9.2 10 Oeste 25 Oeste 0 -- -- 57
2019-03-25 23:00:00 9.4 10 Noroeste 28 Oeste 0 -- -- 55
2019-03-25 22:00:00 9.9 13 Noroeste 39 Noroeste 0 -- -- 54
2019-03-25 21:00:00 10.4 12 Noroeste 29 Noroeste 0 -- -- 52
2019-03-25 20:00:00 11.6 13 Noroeste 35 Noroeste 0 -- -- 47
2019-03-25 19:00:00 13.1 13 Noroeste 47 Norte 0 -- -- 43
2019-03-25 18:00:00 15.1 29 Norte 51 Norte 0 -- -- 37
2019-03-25 17:00:00 16.4 28 Norte 50 Norte 0 -- -- 34
2019-03-25 16:00:00 17.1 26 Norte 51 Norte 0 -- -- 34
2019-03-25 15:00:00 17.7 26 Norte 41 Norte 0 -- -- 36
2019-03-25 14:00:00 18 17 Norte 38 Norte 0 -- -- 36
2019-03-25 13:00:00 16.9 22 Norte 39 Norte 0 -- -- 41
2019-03-25 12:00:00 16.5 23 Norte 41 Norte 0 -- -- 42
2019-03-25 11:00:00 15.4 21 Norte 40 Norte 0 -- -- 47
2019-03-25 10:00:00 13.8 23 Norte 36 Norte 0 -- -- 51
2019-03-25 09:00:00 13.2 14 Norte 27 Norte 0 -- -- 51
2019-03-25 08:00:00 8.9 2 Sudeste 14 Sudeste 0 -- -- 59
2019-03-25 07:00:00 8.8 8 Oeste 14 Oeste 0 -- -- 55
2019-03-25 06:00:00 9.3 6 Oeste 18 Noroeste 0 -- -- 55
2019-03-25 05:00:00 9.9 6 Noroeste 19 Noroeste 0 -- -- 52
2019-03-25 04:00:00 7.3 9 Nordeste 17 Este 0 -- -- 65
2019-03-25 03:00:00 6.9 0 Calma 9 Sudoeste 0 -- -- 67
2019-03-25 02:00:00 8.4 6 Sudoeste 12 Sudoeste 0 -- -- 62
2019-03-25 01:00:00 10.1 4 Sudoeste 7 Sur 0 -- -- 55
2019-03-25 00:00:00 11.6 4 Sur 13 Sudoeste 0 -- -- 50
2019-03-24 23:00:00 15.8 5 Noroeste 36 Norte 0 -- -- 39
2019-03-24 22:00:00 16.6 8 Noroeste 15 Norte 0 -- -- 39
2019-03-24 21:00:00 16.8 6 Oeste 16 Noroeste 0 -- -- 35
2019-03-24 20:00:00 16.8 6 Noroeste 12 Norte 0 -- -- 33
2019-03-24 19:00:00 19.6 5 Norte 15 Nordeste 0 -- -- 29
2019-03-24 18:00:00 22.3 8 Nordeste 21 Norte 0 -- -- 25
2019-03-24 17:00:00 23.2 8 Nordeste 21 Nordeste 0 -- -- 26
2019-03-24 16:00:00 24.2 7 Nordeste 17 Nordeste 0 -- -- 23
2019-03-24 15:00:00 23.1 5 Noroeste 15 Noroeste 0 -- -- 23
2019-03-24 14:00:00 22.4 6 Nordeste 18 Nordeste 0 -- -- 24
2019-03-24 13:00:00 21 8 Nordeste 17 Nordeste 0 -- -- 32
2019-03-24 12:00:00 19.7 6 Nordeste 12 Nordeste 0 -- -- 33
2019-03-24 11:00:00 17.8 4 Este 10 Este 0 -- -- 37
2019-03-24 10:00:00 15.7 5 Sur 14 Sudoeste 0 -- -- 40
2019-03-24 09:00:00 12.1 6 Sudoeste 13 Sudoeste 0 -- -- 47
2019-03-24 08:00:00 6.8 3 Norte 9 Oeste 0 -- -- 65
2019-03-24 07:00:00 6 3 Sudoeste 8 Sudoeste 0 -- -- 65
2019-03-24 06:00:00 6.6 5 Sudoeste 10 Norte 0 -- -- 63
2019-03-24 05:00:00 9.3 4 Noroeste 13 Oeste 0 -- -- 55
2019-03-24 04:00:00 10.2 7 Sudoeste 12 Sudoeste 0 -- -- 52
2019-03-24 03:00:00 10.5 6 Sudoeste 16 Sudoeste 0 -- -- 51
2019-03-24 02:00:00 11.2 7 Sur 17 Oeste 0 -- -- 48
2019-03-24 01:00:00 11.6 4 Sur 21 Oeste 0 -- -- 47
2019-03-24 00:00:00 11.6 8 Oeste 15 Oeste 0 -- -- 47
2019-03-23 23:00:00 8.9 0 Calma 8 Sudoeste 0 -- -- 57
2019-03-23 22:00:00 10 5 Sudoeste 6 Sudoeste 0 -- -- 54
2019-03-23 21:00:00 12.3 2 Sudoeste 8 Sudoeste 0 -- -- 45
2019-03-23 20:00:00 16.2 6 Sudoeste 10 Sudoeste 0 -- -- 37
2019-03-23 19:00:00 19.8 6 Este 15 Este 0 -- -- 30
2019-03-23 18:00:00 22.2 9 Este 24 Este 0 -- -- 25
2019-03-23 17:00:00 22.4 12 Nordeste 28 Este 0 -- -- 25
2019-03-23 16:00:00 22.3 10 Nordeste 27 Nordeste 0 -- -- 29
2019-03-23 15:00:00 21 12 Norte 20 Norte 0 -- -- 32
2019-03-23 14:00:00 20.5 10 Nordeste 20 Nordeste 0 -- -- 33
2019-03-23 13:00:00 20.2 8 Este 13 Este 0 -- -- 34
2019-03-23 12:00:00 18.6 5 Este 13 Este 0 -- -- 38
2019-03-23 11:00:00 16.9 5 Este 10 Este 0 -- -- 41
2019-03-23 10:00:00 13.8 4 Norte 14 Sudoeste 0 -- -- 48
2019-03-23 09:00:00 10.6 8 Sudoeste 12 Sudoeste 0 -- -- 54
2019-03-23 08:00:00 5.2 2 Nordeste 7 Oeste 0 -- -- 73
2019-03-23 07:00:00 3.9 5 Sudoeste 8 Sudoeste 0 -- -- 76
2019-03-23 06:00:00 4.6 0 Calma 4 Oeste 0 -- -- 72
2019-03-23 05:00:00 6.2 2 Oeste 15 Oeste 0 -- -- 66
2019-03-23 04:00:00 7.2 3 Oeste 10 Sudoeste 0 -- -- 63
2019-03-23 03:00:00 7.7 6 Sur 12 Sudoeste 0 -- -- 61
2019-03-23 02:00:00 7.4 4 Sur 12 Sudoeste 0 -- -- 63
2019-03-23 01:00:00 6.7 0 Calma 6 Sudoeste 0 -- -- 64
2019-03-23 00:00:00 8.7 2 Sudoeste 10 Sudoeste 0 -- -- 57
2019-03-22 23:00:00 8 0 Calma 8 Oeste 0 -- -- 60
2019-03-22 22:00:00 8.7 3 Sur 6 Sudoeste 0 -- -- 58
2019-03-22 21:00:00 10.9 4 Norte 10 Sudoeste 0 -- -- 50
2019-03-22 20:00:00 14 5 Sur 10 Sudoeste 0 -- -- 44
2019-03-22 19:00:00 16.9 6 Nordeste 17 Este 0 -- -- 37
2019-03-22 18:00:00 19.2 11 Este 22 Este 0 -- -- 31
2019-03-22 17:00:00 20 11 Este 20 Este 0 -- -- 31
2019-03-22 16:00:00 20.2 10 Este 27 Este 0 -- -- 29
2019-03-22 15:00:00 19.6 6 Este 23 Este 0 -- -- 26
2019-03-22 14:00:00 19 6 Este 21 Sudeste 0 -- -- 26
2019-03-22 13:00:00 17.3 10 Nordeste 21 Nordeste 0 -- -- 29
2019-03-22 12:00:00 15.6 7 Nordeste 14 Nordeste 0 -- -- 33
2019-03-22 11:00:00 14.1 4 Norte 10 Noroeste 0 -- -- 33
2019-03-22 10:00:00 11.3 3 Nordeste 9 Noroeste 0 -- -- 40
2019-03-22 09:00:00 8.1 5 Sur 17 Sudoeste 0 -- -- 46
2019-03-22 08:00:00 5 4 Sudoeste 13 Sudoeste 0 -- -- 53
2019-03-22 07:00:00 2.2 4 Sudoeste 9 Sudoeste 0 -- -- 61
2019-03-22 06:00:00 3.1 7 Sudoeste 11 Sudoeste 0 -- -- 58
2019-03-22 05:00:00 4.2 3 Oeste 14 Sudoeste 0 -- -- 55
2019-03-22 04:00:00 4.1 4 Sudoeste 12 Sudoeste 0 -- -- 55
2019-03-22 03:00:00 4.9 5 Sudoeste 13 Sudoeste 0 -- -- 52
2019-03-22 02:00:00 5.1 5 Sudoeste 14 Oeste 0 -- -- 51
2019-03-22 01:00:00 4.4 3 Sudoeste 10 Oeste 0 -- -- 54
2019-03-22 00:00:00 4.5 2 Sur 8 Oeste 0 -- -- 58
2019-03-21 23:00:00 4.6 3 Sudoeste 5 Sudoeste 0 -- -- 59
2019-03-21 22:00:00 5.1 4 Sur 6 Sur 0 -- -- 58
2019-03-21 21:00:00 6.5 5 Sudoeste 8 Sur 0 -- -- 55
2019-03-21 20:00:00 10.7 4 Norte 10 Nordeste 0 -- -- 40
2019-03-21 19:00:00 13.8 6 Norte 15 Nordeste 0 -- -- 34
2019-03-21 18:00:00 15.9 8 Nordeste 17 Norte 0 -- -- 30
2019-03-21 17:00:00 17.1 4 Noroeste 19 Este 0 -- -- 26
2019-03-21 16:00:00 17.1 6 Este 20 Este 0 -- -- 27
2019-03-21 15:00:00 15.8 6 Nordeste 19 Este 0 -- -- 34
2019-03-21 14:00:00 14.8 8 Nordeste 19 Este 0 -- -- 36
2019-03-21 13:00:00 14.2 6 Este 16 Nordeste 0 -- -- 40
2019-03-21 12:00:00 12.6 8 Nordeste 21 Nordeste 0 -- -- 43
2019-03-21 11:00:00 11.4 9 Nordeste 15 Nordeste 0 -- -- 45
2019-03-21 10:00:00 10.2 6 Sudoeste 17 Oeste 0 -- -- 45
2019-03-21 09:00:00 6.7 4 Sur 16 Oeste 0 -- -- 57
2019-03-21 08:00:00 3.3 3 Este 9 Sudoeste 0 -- -- 66
2019-03-21 07:00:00 2.5 3 Noroeste 20 Oeste 0 -- -- 68
2019-03-21 06:00:00 1.4 5 Oeste 11 Noroeste 0 -- -- 77
2019-03-21 05:00:00 0.4 2 Sur 7 Sudoeste 0 -- -- 79
2019-03-21 04:00:00 1 4 Sudoeste 7 Sudoeste 0 -- -- 77
2019-03-21 03:00:00 2 5 Sudoeste 9 Oeste 0 -- -- 72
2019-03-21 02:00:00 2.2 3 Sur 10 Norte 0 -- -- 72
2019-03-21 01:00:00 3.9 2 Sudeste 13 Sur 0 -- -- 66
2019-03-21 00:00:00 6.4 6 Sur 13 Sudoeste 0 -- -- 56